createdAt,value
2023-05-25T00:00:29.298Z,101801.94
2023-05-25T00:03:16.448Z,101797.53
2023-05-25T00:06:03.187Z,101797.50
2023-05-25T00:08:51.719Z,101800.13
2023-05-25T00:11:40.149Z,101796.53
2023-05-25T00:14:26.934Z,101792.00
2023-05-25T00:17:13.531Z,101801.31
2023-05-25T00:20:02.784Z,101798.66
2023-05-25T00:22:49.522Z,101800.47
2023-05-25T00:25:36.375Z,101803.72
2023-05-25T00:28:24.699Z,101798.59
2023-05-25T00:31:11.801Z,101793.50
2023-05-25T00:33:58.688Z,101788.25
2023-05-25T00:36:48.517Z,101799.69
2023-05-25T00:39:35.057Z,101788.31
2023-05-25T00:42:21.877Z,101784.75
2023-05-25T00:45:11.062Z,101784.88
2023-05-25T00:47:57.783Z,101785.78
2023-05-25T00:50:45.912Z,101786.91
2023-05-25T00:53:33.921Z,101789.69
2023-05-25T00:56:23.852Z,101788.94
2023-05-25T00:59:15.948Z,101792.63
2023-05-25T01:02:08.580Z,101791.53
2023-05-25T01:05:00.180Z,101791.84
2023-05-25T01:07:48.330Z,101791.25
2023-05-25T01:10:38.546Z,101791.50
2023-05-25T01:13:25.893Z,101791.44
2023-05-25T01:16:14.182Z,101793.25
2023-05-25T01:19:03.495Z,101784.56
2023-05-25T01:21:58.318Z,101794.56
2023-05-25T01:24:50.113Z,101788.47
2023-05-25T01:27:43.677Z,101787.59
2023-05-25T01:30:33.725Z,101796.34
2023-05-25T01:33:20.379Z,101775.94
2023-05-25T01:36:07.724Z,101793.00
2023-05-25T01:38:56.062Z,101799.31
2023-05-25T01:41:42.502Z,101795.91
2023-05-25T01:44:29.914Z,101802.19
2023-05-25T01:47:21.523Z,101790.75
2023-05-25T01:50:16.288Z,101797.94
2023-05-25T01:53:05.890Z,101797.13
2023-05-25T01:55:58.747Z,101798.09
2023-05-25T01:58:48.090Z,101804.31
2023-05-25T02:01:37.728Z,101792.91
2023-05-25T02:04:26.342Z,101800.81
2023-05-25T02:07:14.418Z,101798.22
2023-05-25T02:10:00.984Z,101804.50
2023-05-25T02:12:49.221Z,101801.09
2023-05-25T02:15:36.189Z,101798.28
2023-05-25T02:18:22.842Z,101800.16
2023-05-25T02:21:09.560Z,101783.63
2023-05-25T02:23:58.171Z,101803.81
2023-05-25T02:26:45.112Z,101808.28
2023-05-25T02:29:33.955Z,101810.09
2023-05-25T02:32:21.386Z,101802.91
2023-05-25T02:35:08.851Z,101800.28
2023-05-25T02:37:55.803Z,101807.44
2023-05-25T02:40:42.605Z,101810.69
2023-05-25T02:43:29.563Z,101809.03
2023-05-25T02:46:17.718Z,101810.91
2023-05-25T02:49:04.499Z,101819.78
2023-05-25T02:51:51.301Z,101816.22
2023-05-25T02:54:38.882Z,101815.41
2023-05-25T02:57:31.792Z,101818.03
2023-05-25T03:00:20.888Z,101810.91
2023-05-25T03:03:09.686Z,101808.34
2023-05-25T03:05:58.597Z,101811.91
2023-05-25T03:08:45.100Z,101817.31
2023-05-25T03:11:32.021Z,101813.78
2023-05-25T03:14:19.868Z,101811.03
2023-05-25T03:17:14.321Z,101818.09
2023-05-25T03:20:02.364Z,101816.31
2023-05-25T03:22:50.167Z,101808.41
2023-05-25T03:25:37.860Z,101824.31
2023-05-25T03:28:25.183Z,101817.22
2023-05-25T03:31:14.131Z,101816.13
2023-05-25T03:34:00.693Z,101816.13
2023-05-25T03:36:49.324Z,101817.31
2023-05-25T03:39:37.460Z,101822.78
2023-05-25T03:42:24.246Z,101814.84
2023-05-25T03:45:12.077Z,101820.69
2023-05-25T03:48:01.053Z,101826.22
2023-05-25T03:50:47.817Z,101828.66
2023-05-25T03:53:37.101Z,101839.38
2023-05-25T03:56:24.089Z,101828.44
2023-05-25T03:59:10.756Z,101823.44
2023-05-25T04:01:57.535Z,101833.78
2023-05-25T04:04:45.383Z,101835.34
2023-05-25T04:07:31.996Z,101845.50
2023-05-25T04:10:20.156Z,101845.34
2023-05-25T04:13:07.048Z,101850.06
2023-05-25T04:15:53.803Z,101852.72
2023-05-25T04:18:45.598Z,101852.97
2023-05-25T04:21:32.900Z,101859.94
2023-05-25T04:24:19.973Z,101852.78
2023-05-25T04:27:08.436Z,101853.66
2023-05-25T04:29:56.169Z,101867.88
2023-05-25T04:33:13.721Z,101857.19
2023-05-25T04:36:18.153Z,101862.94
2023-05-25T04:39:07.514Z,101854.66
2023-05-25T04:41:58.410Z,101857.19
2023-05-25T04:44:46.609Z,101857.47
2023-05-25T04:47:34.890Z,101854.94
2023-05-25T04:50:21.801Z,101844.38
2023-05-25T04:53:08.804Z,101844.41
2023-05-25T04:55:55.628Z,101846.59
2023-05-25T04:58:44.917Z,101850.28
2023-05-25T05:01:34.589Z,101839.25
2023-05-25T05:04:23.435Z,101850.19
2023-05-25T05:07:10.310Z,101851.78
2023-05-25T05:09:57.033Z,101847.94
2023-05-25T05:12:43.888Z,101852.25
2023-05-25T05:15:30.964Z,101850.88
2023-05-25T05:18:19.914Z,101849.00
2023-05-25T05:21:06.957Z,101847.97
2023-05-25T05:23:56.199Z,101854.47
2023-05-25T05:26:56.094Z,101854.66
2023-05-25T05:29:47.230Z,101854.53
2023-05-25T05:32:34.673Z,101858.47
2023-05-25T05:35:23.399Z,101867.91
2023-05-25T05:38:11.341Z,101870.59
2023-05-25T05:40:58.100Z,101871.72
2023-05-25T05:43:46.429Z,101870.38
2023-05-25T05:46:33.124Z,101868.72
2023-05-25T05:49:19.685Z,101870.59
2023-05-25T05:52:10.257Z,101862.31
2023-05-25T05:54:57.014Z,101874.19
2023-05-25T05:57:43.954Z,101872.66
2023-05-25T06:00:30.683Z,101882.78
2023-05-25T06:03:17.611Z,101878.88
2023-05-25T06:06:05.009Z,101882.00
2023-05-25T06:08:54.547Z,101873.97
2023-05-25T06:11:41.377Z,101882.28
2023-05-25T06:14:29.289Z,101879.97
2023-05-25T06:17:19.718Z,101888.81
2023-05-25T06:20:07.514Z,101886.22
2023-05-25T06:22:54.121Z,101894.34
2023-05-25T06:25:42.521Z,101880.22
2023-05-25T06:28:29.327Z,101878.97
2023-05-25T06:31:16.126Z,101882.94
2023-05-25T06:34:03.321Z,101885.41
2023-05-25T06:36:50.225Z,101887.44
2023-05-25T06:39:39.027Z,101885.66
2023-05-25T06:42:26.853Z,101884.06
2023-05-25T06:45:16.781Z,101886.75
2023-05-25T06:48:03.840Z,101888.84
2023-05-25T06:50:50.635Z,101886.59
2023-05-25T06:53:38.709Z,101889.00
2023-05-25T06:56:25.612Z,101890.69
2023-05-25T06:59:13.720Z,101888.09
2023-05-25T07:02:01.018Z,101885.84
2023-05-25T07:04:47.978Z,101886.75
2023-05-25T07:07:34.865Z,101862.47
2023-05-25T07:10:21.702Z,101901.34
2023-05-25T07:13:08.453Z,101895.34
2023-05-25T07:15:56.683Z,101892.81
2023-05-25T07:18:43.892Z,101892.97
2023-05-25T07:21:33.039Z,101891.81
2023-05-25T07:24:19.678Z,101888.91
2023-05-25T07:27:07.114Z,101903.13
2023-05-25T07:29:53.554Z,101896.91
2023-05-25T07:32:41.822Z,101900.13
2023-05-25T07:35:28.645Z,101900.66
2023-05-25T07:38:15.411Z,101901.69
2023-05-25T07:41:02.143Z,101897.34
2023-05-25T07:43:48.900Z,101909.19
2023-05-25T07:46:36.200Z,101906.09
2023-05-25T07:49:24.662Z,101908.94
2023-05-25T07:52:11.339Z,101910.69
2023-05-25T07:54:58.127Z,101904.88
2023-05-25T07:57:44.893Z,101905.97
2023-05-25T08:00:31.765Z,101907.19
2023-05-25T08:03:22.295Z,101914.38
2023-05-25T08:06:14.644Z,101916.44
2023-05-25T08:09:01.479Z,101909.91
2023-05-25T08:11:48.338Z,101907.53
2023-05-25T08:14:35.140Z,101909.81
2023-05-25T08:17:22.016Z,101895.53
2023-05-25T08:20:10.438Z,101908.50
2023-05-25T08:22:59.334Z,101897.69
2023-05-25T08:25:46.356Z,101909.66
2023-05-25T08:28:33.508Z,101903.06
2023-05-25T08:31:20.507Z,101905.75
2023-05-25T08:34:07.233Z,101907.66
2023-05-25T08:36:54.135Z,101906.09
2023-05-25T08:39:42.524Z,101915.63
2023-05-25T08:42:28.987Z,101907.66
2023-05-25T08:45:30.487Z,101905.84
2023-05-25T08:48:39.468Z,101916.09
2023-05-25T08:51:28.217Z,101906.03
2023-05-25T08:54:16.992Z,101907.63
2023-05-25T08:57:09.270Z,101909.16
2023-05-25T09:00:04.694Z,101917.59
2023-05-25T09:02:55.722Z,101914.53
2023-05-25T09:05:43.284Z,101911.38
2023-05-25T09:08:30.100Z,101917.13
2023-05-25T09:11:26.989Z,101917.66
2023-05-25T09:14:23.682Z,101913.09
2023-05-25T09:17:10.618Z,101921.41
2023-05-25T09:19:57.421Z,101922.59
2023-05-25T09:22:45.367Z,101918.06
2023-05-25T09:25:32.403Z,101921.16
2023-05-25T09:28:27.055Z,101922.91
2023-05-25T09:31:16.182Z,101920.16
2023-05-25T09:34:02.800Z,101923.72
2023-05-25T09:36:49.796Z,101924.81
2023-05-25T09:39:37.010Z,101923.50
2023-05-25T09:42:24.047Z,101918.50
2023-05-25T09:45:11.500Z,101918.25
2023-05-25T09:48:00.299Z,101925.31
2023-05-25T09:50:49.703Z,101937.31
2023-05-25T09:53:37.117Z,101933.78
2023-05-25T09:56:24.837Z,101933.41
2023-05-25T09:59:12.800Z,101939.94
2023-05-25T10:01:59.976Z,101936.66
2023-05-25T10:04:48.672Z,101933.16
2023-05-25T10:07:36.188Z,101925.31
2023-05-25T10:10:23.493Z,101935.50
2023-05-25T10:13:11.377Z,101938.38
2023-05-25T10:15:59.404Z,101948.63
2023-05-25T10:18:50.526Z,101921.22
2023-05-25T10:21:39.506Z,101936.38
2023-05-25T10:24:33.546Z,101932.25
2023-05-25T10:27:27.538Z,101930.56
2023-05-25T10:30:15.608Z,101928.00
2023-05-25T10:33:04.248Z,101932.34
2023-05-25T10:36:03.026Z,101931.00
2023-05-25T10:38:59.490Z,101924.53
2023-05-25T10:41:46.319Z,101930.44
2023-05-25T10:44:33.346Z,101931.09
2023-05-25T10:47:20.597Z,101927.25
2023-05-25T10:50:08.848Z,101927.13
2023-05-25T10:53:04.009Z,101927.81
2023-05-25T10:56:03.373Z,101924.94
2023-05-25T10:58:50.088Z,101923.38
2023-05-25T11:01:51.456Z,101916.13
2023-05-25T11:04:38.376Z,101919.09
2023-05-25T11:07:25.420Z,101924.25
2023-05-25T11:10:12.110Z,101921.66
2023-05-25T11:13:22.946Z,101924.53
2023-05-25T11:16:18.097Z,101918.03
2023-05-25T11:19:05.337Z,101918.41
2023-05-25T11:21:55.658Z,101924.19
2023-05-25T11:24:45.150Z,101918.28
2023-05-25T11:27:33.105Z,101901.16
2023-05-25T11:30:21.571Z,101925.47
2023-05-25T11:33:09.221Z,101915.84
2023-05-25T11:35:57.681Z,101927.22
2023-05-25T11:38:53.187Z,101926.44
2023-05-25T11:41:51.471Z,101928.38
2023-05-25T11:44:39.192Z,101927.88
2023-05-25T11:47:30.067Z,101926.53
2023-05-25T11:50:17.477Z,101925.44
2023-05-25T11:53:07.198Z,101927.31
2023-05-25T11:56:00.564Z,101917.94
2023-05-25T11:58:54.682Z,101920.50
2023-05-25T12:01:41.587Z,101915.25
2023-05-25T12:04:29.947Z,101913.22
2023-05-25T12:07:17.074Z,101910.72
2023-05-25T12:10:08.243Z,101914.97
2023-05-25T12:12:58.361Z,101915.06
2023-05-25T12:15:46.127Z,101913.97
2023-05-25T12:18:33.145Z,101908.44
2023-05-25T12:21:22.783Z,101913.31
2023-05-25T12:24:12.846Z,101916.88
2023-05-25T12:27:01.897Z,101907.88
2023-05-25T12:29:48.983Z,101904.84
2023-05-25T12:32:36.697Z,101905.50
2023-05-25T12:35:23.437Z,101895.44
2023-05-25T12:38:15.534Z,101901.75
2023-05-25T12:41:09.037Z,101904.25
2023-05-25T12:43:55.481Z,101907.38
2023-05-25T12:46:42.228Z,101898.94
2023-05-25T12:49:31.545Z,101902.47
2023-05-25T12:52:33.686Z,101903.97
2023-05-25T12:55:29.243Z,101910.09
2023-05-25T12:58:28.705Z,101884.22
2023-05-25T13:01:15.540Z,101906.69
2023-05-25T13:04:02.317Z,101901.41
2023-05-25T13:06:49.032Z,101897.19
2023-05-25T13:09:36.590Z,101891.06
2023-05-25T13:12:24.797Z,101890.34
2023-05-25T13:15:12.222Z,101895.97
2023-05-25T13:17:59.309Z,101890.13
2023-05-25T13:20:48.962Z,101897.94
2023-05-25T13:23:37.330Z,101898.19
2023-05-25T13:26:24.975Z,101894.50
2023-05-25T13:29:13.315Z,101894.56
2023-05-25T13:31:59.909Z,101889.28
2023-05-25T13:34:46.826Z,101899.13
2023-05-25T13:37:34.104Z,101893.25
2023-05-25T13:40:20.866Z,101899.06
2023-05-25T13:43:07.831Z,101898.38
2023-05-25T13:45:55.849Z,101895.78
2023-05-25T13:48:47.414Z,101895.47
2023-05-25T13:51:35.842Z,101890.28
2023-05-25T13:54:23.688Z,101893.25
2023-05-25T13:57:10.764Z,101895.00
2023-05-25T13:59:57.594Z,101892.09
2023-05-25T14:02:45.872Z,101889.13
2023-05-25T14:05:32.517Z,101888.81
2023-05-25T14:08:19.407Z,101827.81
2023-05-25T14:11:06.386Z,101889.88
2023-05-25T14:13:53.305Z,101895.06
2023-05-25T14:16:40.239Z,101898.34
2023-05-25T14:19:28.286Z,101892.09
2023-05-25T14:22:15.096Z,101903.28
2023-05-25T14:25:02.057Z,101892.09
2023-05-25T14:27:48.893Z,101896.53
2023-05-25T14:30:35.581Z,101897.13
2023-05-25T14:33:22.511Z,101898.38
2023-05-25T14:36:10.870Z,101905.81
2023-05-25T14:38:57.269Z,101890.34
2023-05-25T14:41:43.975Z,101885.63
2023-05-25T14:44:30.719Z,101883.81
2023-05-25T14:47:17.611Z,101885.97
2023-05-25T14:50:04.228Z,101887.13
2023-05-25T14:52:52.406Z,101879.59
2023-05-25T14:55:39.081Z,101877.25
2023-05-25T14:58:25.743Z,101882.19
2023-05-25T15:01:12.661Z,101880.56
2023-05-25T15:03:59.413Z,101876.81
2023-05-25T15:06:46.092Z,101880.81
2023-05-25T15:09:34.396Z,101878.31
2023-05-25T15:12:21.285Z,101875.91
2023-05-25T15:15:09.376Z,101874.84
2023-05-25T15:17:56.392Z,101879.63
2023-05-25T15:20:43.387Z,101874.81
2023-05-25T15:23:30.137Z,101870.94
2023-05-25T15:26:18.210Z,101865.75
2023-05-25T15:29:05.030Z,101874.09
2023-05-25T15:31:53.285Z,101873.69
2023-05-25T15:34:40.065Z,101870.53
2023-05-25T15:37:27.173Z,101864.28
2023-05-25T15:40:15.150Z,101864.97
2023-05-25T15:43:03.061Z,101864.19
2023-05-25T15:45:49.789Z,101869.06
2023-05-25T15:48:36.703Z,101863.41
2023-05-25T15:51:23.377Z,101871.31
2023-05-25T15:54:13.454Z,101872.41
2023-05-25T15:57:01.406Z,101869.91
2023-05-25T15:59:49.367Z,101867.72
2023-05-25T16:02:36.084Z,101863.81
2023-05-25T16:05:26.838Z,101872.09
2023-05-25T16:08:33.968Z,101878.75
2023-05-25T16:11:37.459Z,101819.28
2023-05-25T16:14:28.393Z,101860.81
2023-05-25T16:17:16.847Z,101857.06
2023-05-25T16:20:04.297Z,101862.28
2023-05-25T16:22:51.555Z,101862.59
2023-05-25T16:25:38.276Z,101862.59
2023-05-25T16:28:25.284Z,101856.31
2023-05-25T16:31:13.544Z,101863.25
2023-05-25T16:34:01.833Z,101857.94
2023-05-25T16:36:48.413Z,101864.38
2023-05-25T16:39:35.200Z,101864.38
2023-05-25T16:42:25.434Z,101862.72
2023-05-25T16:45:13.783Z,101859.38
2023-05-25T16:48:01.404Z,101856.88
2023-05-25T16:50:49.688Z,101864.13
2023-05-25T16:53:36.470Z,101856.59
2023-05-25T16:56:24.667Z,101860.34
2023-05-25T16:59:11.254Z,101849.28
2023-05-25T17:01:59.259Z,101842.91
2023-05-25T17:04:46.620Z,101859.56
2023-05-25T17:07:35.162Z,101851.28
2023-05-25T17:10:22.334Z,101841.16
2023-05-25T17:13:08.960Z,101851.56
2023-05-25T17:15:55.923Z,101847.16
2023-05-25T17:18:42.897Z,101854.16
2023-05-25T17:21:29.690Z,101847.38
2023-05-25T17:24:18.265Z,101855.50
2023-05-25T17:27:05.429Z,101846.47
2023-05-25T17:29:52.092Z,101842.03
2023-05-25T17:32:40.137Z,101845.28
2023-05-25T17:35:26.592Z,101845.59
2023-05-25T17:38:13.424Z,101849.63
2023-05-25T17:41:01.565Z,101851.19
2023-05-25T17:43:48.236Z,101851.25
2023-05-25T17:46:35.138Z,101866.16
2023-05-25T17:49:21.730Z,101868.78
2023-05-25T17:52:09.000Z,101853.56
2023-05-25T17:54:57.279Z,101864.88
2023-05-25T17:57:46.796Z,101868.94
2023-05-25T18:00:34.220Z,101871.38
2023-05-25T18:03:20.976Z,101870.44
2023-05-25T18:06:07.969Z,101871.56
2023-05-25T18:08:54.398Z,101877.53
2023-05-25T18:11:41.275Z,101880.31
2023-05-25T18:14:35.263Z,101882.28
2023-05-25T18:17:21.908Z,101885.25
2023-05-25T18:20:10.079Z,101885.94
2023-05-25T18:22:56.687Z,101882.28
2023-05-25T18:25:43.508Z,101884.25
2023-05-25T18:28:31.374Z,101881.72
2023-05-25T18:31:19.877Z,101818.88
2023-05-25T18:34:06.895Z,101881.88
2023-05-25T18:36:53.690Z,101876.53
2023-05-25T18:39:40.633Z,101884.38
2023-05-25T18:42:27.282Z,101884.47
2023-05-25T18:45:14.015Z,101886.38
2023-05-25T18:48:07.556Z,101891.72
2023-05-25T18:50:55.213Z,101890.41
2023-05-25T18:53:42.962Z,101891.72
2023-05-25T18:56:31.854Z,101892.06
2023-05-25T18:59:18.501Z,101901.16
2023-05-25T19:02:05.788Z,101890.38
2023-05-25T19:04:54.111Z,101899.31
2023-05-25T19:07:54.793Z,101896.28
2023-05-25T19:10:45.106Z,101907.81
2023-05-25T19:13:31.566Z,101908.19
2023-05-25T19:16:18.349Z,101917.41
2023-05-25T19:19:08.917Z,101917.31
2023-05-25T19:21:59.283Z,101925.25
2023-05-25T19:25:00.355Z,101933.91
2023-05-25T19:27:49.414Z,101929.41
2023-05-25T19:30:39.427Z,101937.00
2023-05-25T19:33:26.161Z,101930.78
2023-05-25T19:36:12.944Z,101933.13
2023-05-25T19:39:01.167Z,101935.00
2023-05-25T19:41:48.511Z,101936.94
2023-05-25T19:44:35.322Z,101939.84
2023-05-25T19:47:22.366Z,101946.88
2023-05-25T19:50:09.935Z,101928.38
2023-05-25T19:52:57.342Z,101937.56
2023-05-25T19:55:45.998Z,101953.19
2023-05-25T19:58:33.099Z,101953.56
2023-05-25T20:01:19.865Z,101945.47
2023-05-25T20:04:06.718Z,101951.66
2023-05-25T20:06:53.494Z,101947.41
2023-05-25T20:09:40.262Z,101951.94
2023-05-25T20:12:28.432Z,101949.09
2023-05-25T20:15:15.240Z,101957.38
2023-05-25T20:18:02.992Z,101962.19
2023-05-25T20:20:49.868Z,101959.06
2023-05-25T20:23:36.714Z,101966.25
2023-05-25T20:26:23.492Z,101964.94
2023-05-25T20:29:11.702Z,101963.28
2023-05-25T20:31:58.608Z,101973.38
2023-05-25T20:34:45.510Z,101975.19
2023-05-25T20:37:32.094Z,101974.50
2023-05-25T20:40:19.060Z,101978.81
2023-05-25T20:43:05.574Z,101978.38
2023-05-25T20:45:53.619Z,101976.59
2023-05-25T20:48:40.767Z,101975.25
2023-05-25T20:51:27.754Z,101982.47
2023-05-25T20:54:14.428Z,101979.03
2023-05-25T20:57:03.915Z,101978.00
2023-05-25T20:59:51.726Z,101983.81
2023-05-25T21:02:40.112Z,101981.31
2023-05-25T21:05:27.032Z,101984.91
2023-05-25T21:08:13.798Z,101993.84
2023-05-25T21:11:01.025Z,101989.50
2023-05-25T21:13:48.768Z,101992.13
2023-05-25T21:16:36.060Z,101984.38
2023-05-25T21:19:24.623Z,101989.97
2023-05-25T21:22:13.172Z,101983.88
2023-05-25T21:24:59.759Z,101990.28
2023-05-25T21:27:46.343Z,101983.41
2023-05-25T21:30:33.182Z,101990.34
2023-05-25T21:33:20.133Z,101994.94
2023-05-25T21:36:09.018Z,101990.63
2023-05-25T21:38:55.776Z,101988.84
2023-05-25T21:41:42.759Z,101993.38
2023-05-25T21:44:29.572Z,102003.25
2023-05-25T21:47:16.556Z,101994.56
2023-05-25T21:50:03.342Z,102009.28
2023-05-25T21:52:51.128Z,102007.44
2023-05-25T21:55:37.984Z,102016.22
2023-05-25T21:58:27.768Z,102020.63
2023-05-25T22:01:19.743Z,102028.00
2023-05-25T22:04:06.896Z,102025.56
2023-05-25T22:06:54.091Z,102020.56
2023-05-25T22:09:42.181Z,102028.72
2023-05-25T22:12:28.818Z,102029.38
2023-05-25T22:15:15.821Z,102027.75
2023-05-25T22:18:02.707Z,102028.53
2023-05-25T22:20:49.494Z,102028.81
2023-05-25T22:23:36.377Z,102030.84
2023-05-25T22:26:24.368Z,102029.34
2023-05-25T22:29:11.961Z,102030.31
2023-05-25T22:31:58.793Z,102032.22
2023-05-25T22:34:45.616Z,102027.97
2023-05-25T22:37:32.547Z,102030.59
2023-05-25T22:40:19.493Z,102028.91
2023-05-25T22:43:12.799Z,102027.38
2023-05-25T22:45:59.432Z,102023.94
2023-05-25T22:48:46.245Z,102025.00
2023-05-25T22:51:33.008Z,102025.94
2023-05-25T22:54:19.859Z,102031.38
2023-05-25T22:57:07.553Z,102030.50
2023-05-25T22:59:55.726Z,102021.97
2023-05-25T23:02:42.651Z,102034.44
2023-05-25T23:05:29.406Z,102033.69
2023-05-25T23:08:16.057Z,102031.81
2023-05-25T23:11:02.978Z,102032.88
2023-05-25T23:13:50.668Z,102032.25
2023-05-25T23:16:38.950Z,102031.19
2023-05-25T23:19:25.959Z,102026.69
2023-05-25T23:22:12.567Z,102027.75
2023-05-25T23:24:59.024Z,102023.50
2023-05-25T23:27:45.678Z,102024.56
2023-05-25T23:30:32.554Z,102022.81
2023-05-25T23:33:20.667Z,102030.03
2023-05-25T23:36:08.406Z,102033.09
2023-05-25T23:38:55.602Z,102023.34
2023-05-25T23:41:42.488Z,102028.50
2023-05-25T23:44:29.271Z,102031.97
2023-05-25T23:47:16.158Z,102025.69
2023-05-25T23:50:04.657Z,102017.69
2023-05-25T23:52:51.098Z,102011.84
2023-05-25T23:55:37.848Z,102019.00
2023-05-25T23:58:24.609Z,102014.88
